Tropical Cyclones
[Index]
Main Index Home Page Stock Weather Photos Extreme Storms Discussion Storm News and Storm Chasing Reports Tropical Cyclones / Hurricanes / Typhoons Weather Data and Links Wild Fires / Bushfires Weather Observation Techniques Weather Picture Catalogue Tornado Pictures and Reports Stock Video Footage and DVDs for sale
Season 2004-2005 Tropical Cyclone OLAF Track Map
Season 2004-2005 Summaries: [BoM-AU] [JTWC-AU] [JTWC-SIO] [JTWC-SPAC] [JTWC-SH]
<<- Previous TC | JTWC 2004-2005 Season | Next TC ->>

click for intensity scale information  Lat/long Grid: Show Hide

 Date Labels: Show Hide

Joint Typhoon Warning Centre Cyclone Data

Name: OLAF

13 Feb 2005 00:00 UTC to 20 Feb 2005 06:00 UTC

    date/time    lat    long     hPa   cat  kts
2005-02-13 00    9.3   178.3W   1002         25          
2005-02-13 06    9.3   178.2W   1000         30          
2005-02-13 12    9.3   178.1W    997         35          
2005-02-13 18    9.3   178.0W    994    1    40          
2005-02-14 00    9.3   177.7W    972    2    70          
2005-02-14 00    9.3   177.7W    972    2    70          
2005-02-14 00    9.3   177.7W    972    2    70          
2005-02-14 06    9.3   177.4W    954    3    90          
2005-02-14 06    9.3   177.4W    954    3    90          
2005-02-14 06    9.3   177.4W    954    3    90          
2005-02-14 12    9.5   176.9W    938    4   105          
2005-02-14 12    9.5   176.9W    938    4   105          
2005-02-14 12    9.5   176.9W    938    4   105          
2005-02-14 18   10.0   176.0W    922    4   120          
2005-02-14 18   10.0   176.0W    922    4   120          
2005-02-14 18   10.0   176.0W    922    4   120          
2005-02-15 00   10.8   175.2W    916    5   125          
2005-02-15 00   10.8   175.2W    916    5   125          
2005-02-15 00   10.8   175.2W    916    5   125          
2005-02-15 06   11.5   174.6W    916    5   125          
2005-02-15 06   11.5   174.6W    916    5   125          
2005-02-15 06   11.5   174.6W    916    5   125          
2005-02-15 12   12.0   174.1W    910    5   130          
2005-02-15 12   12.0   174.1W    910    5   130          
2005-02-15 12   12.0   174.1W    910    5   130          
2005-02-15 18   12.1   173.6W    904    5   135          
2005-02-15 18   12.1   173.6W    904    5   135          
2005-02-15 18   12.1   173.6W    904    5   135          
2005-02-16 00   12.2   172.5W    898    5   140          
2005-02-16 00   12.2   172.5W    898    5   140          
2005-02-16 00   12.2   172.5W    898    5   140          
2005-02-16 06   12.7   171.2W    892    5   145          
2005-02-16 06   12.7   171.2W    892    5   145          
2005-02-16 06   12.7   171.2W    892    5   145          
2005-02-16 12   13.4   170.0W    892    5   145          
2005-02-16 12   13.4   170.0W    892    5   145          
2005-02-16 12   13.4   170.0W    892    5   145          
2005-02-16 18   14.5   168.9W    898    5   140          
2005-02-16 18   14.5   168.9W    898    5   140          
2005-02-16 18   14.5   168.9W    898    5   140          
2005-02-17 00   15.5   168.1W    898    5   140          
2005-02-17 00   15.5   168.1W    898    5   140          
2005-02-17 00   15.5   168.1W    898    5   140          
2005-02-17 06   16.5   167.3W    910    5   130          
2005-02-17 06   16.5   167.3W    910    5   130          
2005-02-17 06   16.5   167.3W    910    5   130          
2005-02-17 12   17.6   166.5W    916    5   125          
2005-02-17 12   17.6   166.5W    916    5   125          
2005-02-17 12   17.6   166.5W    916    5   125          
2005-02-17 18   18.5   165.6W    922    4   120          
2005-02-17 18   18.5   165.6W    922    4   120          
2005-02-17 18   18.5   165.6W    922    4   120          
2005-02-18 00   19.7   164.3W    922    4   120          
2005-02-18 00   19.7   164.3W    922    4   120          
2005-02-18 00   19.7   164.3W    922    4   120          
2005-02-18 06   21.2   162.9W    927    4   115          
2005-02-18 06   21.2   162.9W    927    4   115          
2005-02-18 06   21.2   162.9W    927    4   115          
2005-02-18 12   22.9   161.8W    944    4   100          
2005-02-18 12   22.9   161.8W    944    4   100          
2005-02-18 12   22.9   161.8W    944    4   100          
2005-02-18 18   24.7   160.8W    954    3    90          
2005-02-18 18   24.7   160.8W    954    3    90          
2005-02-18 18   24.7   160.8W    954    3    90          
2005-02-19 00   26.3   160.7W    954    3    90          
2005-02-19 00   26.3   160.7W    954    3    90          
2005-02-19 00   26.3   160.7W    954    3    90          
2005-02-19 06   27.9   160.9W    976    2    65          
2005-02-19 06   27.9   160.9W    976    2    65          
2005-02-19 12   29.5   161.2W    984    2    55          
2005-02-19 12   29.5   161.2W    984    2    55          
2005-02-19 18   31.0   161.3W    991    1    45          
2005-02-20 00   32.5   160.9W    991    1    45          
2005-02-20 06   33.9   160.4W   1002         25          
Winds are 1-min average.

Tropical cyclone tracks developed by Michael Bath using data from the Joint Typhoon Warning Centre Best Tracks and Google Maps.


[Australian Severe Weather index] [Copyright Notice] [Email Contacts] [Search This Site] [Privacy Policy]
Document: tropical_cyclone_olaf.htm Updated: 28 June 2017